createdAt,value
2018-03-23T00:00:59.208Z,49.50
2018-03-23T00:03:27.042Z,49.70
2018-03-23T00:05:54.936Z,49.70
2018-03-23T00:08:22.852Z,49.30
2018-03-23T00:10:51.528Z,49.80
2018-03-23T00:13:19.409Z,49.80
2018-03-23T00:15:47.310Z,50.20
2018-03-23T00:18:15.135Z,50.40
2018-03-23T00:20:43.720Z,50.40
2018-03-23T00:23:12.307Z,50.10
2018-03-23T00:25:40.928Z,50.00
2018-03-23T00:28:08.808Z,49.90
2018-03-23T00:30:36.723Z,49.80
2018-03-23T00:33:05.294Z,49.80
2018-03-23T00:35:33.847Z,49.60
2018-03-23T00:38:01.631Z,49.60
2018-03-23T00:40:29.459Z,49.70
2018-03-23T00:42:57.453Z,49.70
2018-03-23T00:45:25.295Z,49.70
2018-03-23T00:47:53.112Z,49.80
2018-03-23T00:50:21.808Z,49.60
2018-03-23T00:52:50.337Z,49.60
2018-03-23T00:55:18.330Z,49.60
2018-03-23T00:57:46.327Z,49.70
2018-03-23T01:00:14.935Z,49.50
2018-03-23T01:02:42.839Z,49.50
2018-03-23T01:05:10.773Z,49.50
2018-03-23T01:07:38.575Z,49.50
2018-03-23T01:10:06.438Z,49.40
2018-03-23T01:12:34.313Z,49.50
2018-03-23T01:15:02.145Z,49.50
2018-03-23T01:17:30.011Z,49.90
2018-03-23T01:19:57.933Z,50.00
2018-03-23T01:22:25.837Z,50.40
2018-03-23T01:24:53.603Z,50.10
2018-03-23T01:27:21.574Z,50.40
2018-03-23T01:29:49.442Z,50.90
2018-03-23T01:32:17.245Z,52.30
2018-03-23T01:34:45.167Z,52.30
2018-03-23T01:37:12.976Z,51.70
2018-03-23T01:39:40.781Z,52.20
2018-03-23T01:42:09.434Z,52.90
2018-03-23T01:44:37.239Z,52.90
2018-03-23T01:47:05.074Z,53.10
2018-03-23T01:49:32.925Z,53.20
2018-03-23T01:52:00.714Z,53.20
2018-03-23T01:54:28.598Z,53.10
2018-03-23T01:56:57.237Z,53.00
2018-03-23T01:59:25.021Z,53.00
2018-03-23T02:01:52.903Z,53.20
2018-03-23T02:04:20.715Z,53.00
2018-03-23T02:06:48.603Z,53.20
2018-03-23T02:09:16.481Z,53.70
2018-03-23T02:11:44.418Z,53.80
2018-03-23T02:14:12.382Z,54.20
2018-03-23T02:16:40.223Z,54.70
2018-03-23T02:19:09.043Z,55.90
2018-03-23T02:21:37.003Z,55.90
2018-03-23T02:24:04.943Z,55.60
2018-03-23T02:26:33.739Z,54.00
2018-03-23T02:29:01.643Z,54.00
2018-03-23T02:31:29.586Z,55.50
2018-03-23T02:33:57.470Z,55.40
2018-03-23T02:36:25.530Z,55.50
2018-03-23T02:38:53.439Z,56.00
2018-03-23T02:41:21.393Z,55.20
2018-03-23T02:43:49.301Z,56.00
2018-03-23T02:46:17.984Z,56.40
2018-03-23T02:48:46.644Z,56.70
2018-03-23T02:51:14.523Z,56.60
2018-03-23T02:53:42.416Z,56.60
2018-03-23T02:56:11.137Z,56.40
2018-03-23T02:58:38.990Z,56.40
2018-03-23T03:01:06.899Z,54.70
2018-03-23T03:03:34.743Z,54.80
2018-03-23T03:06:02.631Z,55.20
2018-03-23T03:08:30.444Z,55.10
2018-03-23T03:10:59.221Z,55.10
2018-03-23T03:13:27.902Z,54.70
2018-03-23T03:15:56.557Z,54.60
2018-03-23T03:18:24.543Z,54.60
2018-03-23T03:20:52.442Z,54.40
2018-03-23T03:23:20.365Z,53.90
2018-03-23T03:25:48.336Z,53.70
2018-03-23T03:28:16.184Z,53.60
2018-03-23T03:30:44.027Z,55.00
2018-03-23T03:33:11.995Z,55.30
2018-03-23T03:35:39.868Z,57.10
2018-03-23T03:38:07.718Z,57.60
2018-03-23T03:40:35.675Z,58.30
2018-03-23T03:43:04.321Z,59.40
2018-03-23T03:45:32.190Z,58.90
2018-03-23T03:48:00.120Z,59.00
2018-03-23T03:50:28.021Z,59.90
2018-03-23T03:52:55.856Z,60.10
2018-03-23T03:55:23.774Z,59.50
2018-03-23T03:57:51.740Z,59.70
2018-03-23T04:00:19.626Z,60.20
2018-03-23T04:02:48.551Z,61.60
2018-03-23T04:05:16.383Z,61.40
2018-03-23T04:07:45.045Z,63.30
2018-03-23T04:10:13.012Z,63.20
2018-03-23T04:12:40.862Z,62.60
2018-03-23T04:15:08.808Z,62.50
2018-03-23T04:17:36.729Z,62.90
2018-03-23T04:20:04.671Z,63.20
2018-03-23T04:22:32.623Z,63.60
2018-03-23T04:25:00.664Z,63.50
2018-03-23T04:27:28.548Z,63.20
2018-03-23T04:29:56.549Z,64.20
2018-03-23T04:32:24.581Z,65.90
2018-03-23T04:34:52.553Z,64.40
2018-03-23T04:37:20.400Z,65.00
2018-03-23T04:39:49.101Z,64.20
2018-03-23T04:42:17.012Z,64.10
2018-03-23T04:44:44.926Z,63.20
2018-03-23T04:47:13.618Z,62.40
2018-03-23T04:49:42.238Z,60.80
2018-03-23T04:52:10.060Z,60.80
2018-03-23T04:54:38.861Z,62.00
2018-03-23T04:57:06.684Z,61.90
2018-03-23T04:59:34.593Z,62.00
2018-03-23T05:02:02.591Z,60.30
2018-03-23T05:04:30.436Z,60.00
2018-03-23T05:06:58.346Z,61.00
2018-03-23T05:09:26.362Z,61.70
2018-03-23T05:11:54.365Z,62.10
2018-03-23T05:14:22.349Z,62.60
2018-03-23T05:16:50.350Z,62.30
2018-03-23T05:19:18.195Z,62.60
2018-03-23T05:21:46.096Z,63.80
2018-03-23T05:24:14.730Z,63.80
2018-03-23T05:26:42.677Z,63.70
2018-03-23T05:29:10.572Z,63.30
2018-03-23T05:31:38.773Z,62.60
2018-03-23T05:34:06.665Z,62.20
2018-03-23T05:36:35.296Z,66.50
2018-03-23T05:39:03.408Z,66.40
2018-03-23T05:41:31.227Z,66.40
2018-03-23T05:43:59.230Z,65.80
2018-03-23T05:46:27.308Z,65.90
2018-03-23T05:48:55.182Z,66.30
2018-03-23T05:51:23.012Z,64.90
2018-03-23T05:53:51.001Z,66.10
2018-03-23T05:56:18.858Z,64.60
2018-03-23T05:58:46.829Z,63.20
2018-03-23T06:01:14.857Z,61.50
2018-03-23T06:03:42.857Z,60.80
2018-03-23T06:06:10.744Z,60.10
2018-03-23T06:08:38.834Z,59.90
2018-03-23T06:11:06.839Z,59.50
2018-03-23T06:13:34.726Z,60.50
2018-03-23T06:16:02.719Z,59.40
2018-03-23T06:18:30.655Z,59.50
2018-03-23T06:20:59.340Z,59.30
2018-03-23T06:23:27.303Z,59.10
2018-03-23T06:25:55.208Z,58.80
2018-03-23T06:28:23.051Z,58.70
2018-03-23T06:30:51.156Z,59.10
2018-03-23T06:33:19.030Z,59.20
2018-03-23T06:35:46.969Z,58.80
2018-03-23T06:38:14.980Z,59.10
2018-03-23T06:40:43.639Z,59.00
2018-03-23T06:43:11.533Z,58.40
2018-03-23T06:45:39.583Z,57.90
2018-03-23T06:48:07.493Z,56.80
2018-03-23T06:50:35.455Z,56.50
2018-03-23T06:53:04.243Z,56.50
2018-03-23T06:55:32.917Z,56.50
2018-03-23T06:58:01.586Z,56.20
2018-03-23T07:00:29.554Z,56.20
2018-03-23T07:02:57.461Z,55.50
2018-03-23T07:05:26.190Z,55.20
2018-03-23T07:07:54.251Z,55.20
2018-03-23T07:10:22.171Z,55.10
2018-03-23T07:12:50.843Z,55.30
2018-03-23T07:15:18.938Z,55.30
2018-03-23T07:17:48.741Z,55.30
2018-03-23T07:20:18.551Z,56.30
2018-03-23T07:22:47.272Z,57.20
2018-03-23T07:25:15.217Z,57.20
2018-03-23T07:27:43.917Z,57.10
2018-03-23T07:30:12.003Z,57.10
2018-03-23T07:32:39.904Z,56.40
2018-03-23T07:35:08.023Z,56.60
2018-03-23T07:37:35.953Z,56.10
2018-03-23T07:40:03.920Z,55.30
2018-03-23T07:42:31.814Z,54.40
2018-03-23T07:45:00.550Z,55.20
2018-03-23T07:47:28.460Z,55.20
2018-03-23T07:49:57.120Z,53.00
2018-03-23T07:52:25.017Z,52.60
2018-03-23T07:54:53.716Z,50.10
2018-03-23T07:57:22.475Z,49.40
2018-03-23T07:59:50.358Z,49.40
2018-03-23T08:02:19.134Z,47.60
2018-03-23T08:04:47.086Z,47.60
2018-03-23T08:07:15.048Z,48.90
2018-03-23T08:09:42.855Z,47.90
2018-03-23T08:12:10.682Z,47.80
2018-03-23T08:14:38.678Z,47.60
2018-03-23T08:17:06.501Z,47.80
2018-03-23T08:19:34.472Z,47.60
2018-03-23T08:22:02.441Z,47.50
2018-03-23T08:24:30.329Z,48.00
2018-03-23T08:26:58.284Z,47.10
2018-03-23T08:29:26.295Z,47.40
2018-03-23T08:31:54.279Z,47.40
2018-03-23T08:34:22.100Z,46.90
2018-03-23T08:36:50.137Z,47.00
2018-03-23T08:39:18.047Z,46.10
2018-03-23T08:41:45.960Z,46.40
2018-03-23T08:44:13.999Z,46.10
2018-03-23T08:46:41.878Z,45.30
2018-03-23T08:49:10.636Z,45.00
2018-03-23T08:51:38.596Z,44.90
2018-03-23T08:54:06.557Z,44.20
2018-03-23T08:56:34.497Z,44.20
2018-03-23T08:59:03.298Z,45.00
2018-03-23T09:01:31.209Z,45.00
2018-03-23T09:03:59.152Z,44.00
2018-03-23T09:06:27.181Z,44.00
2018-03-23T09:08:55.789Z,43.50
2018-03-23T09:11:24.513Z,43.50
2018-03-23T09:13:52.493Z,43.50
2018-03-23T09:16:20.429Z,42.90
2018-03-23T09:18:48.350Z,43.20
2018-03-23T09:21:18.243Z,43.00
2018-03-23T09:23:46.954Z,42.90
2018-03-23T09:26:15.605Z,41.90
2018-03-23T09:28:43.557Z,41.90
2018-03-23T09:31:11.478Z,42.50
2018-03-23T09:33:39.434Z,42.50
2018-03-23T09:36:08.170Z,43.00
2018-03-23T09:38:36.082Z,43.00
2018-03-23T09:41:04.035Z,43.00
2018-03-23T09:43:32.037Z,43.00
2018-03-23T09:46:00.791Z,42.60
2018-03-23T09:48:28.636Z,42.60
2018-03-23T09:50:56.613Z,41.80
2018-03-23T09:53:24.523Z,41.20
2018-03-23T09:55:53.170Z,40.80
2018-03-23T09:58:23.079Z,40.70
2018-03-23T10:00:50.966Z,40.70
2018-03-23T10:03:18.786Z,40.40
2018-03-23T10:05:46.781Z,41.60
2018-03-23T10:08:14.720Z,41.40
2018-03-23T10:10:42.702Z,39.70
2018-03-23T10:13:10.741Z,40.10
2018-03-23T10:15:39.445Z,40.10
2018-03-23T10:18:07.349Z,40.10
2018-03-23T10:20:35.258Z,40.80
2018-03-23T10:23:03.911Z,40.00
2018-03-23T10:25:31.759Z,40.00
2018-03-23T10:27:59.698Z,39.40
2018-03-23T10:30:27.678Z,39.00
2018-03-23T10:32:55.650Z,38.50
2018-03-23T10:35:23.680Z,39.30
2018-03-23T10:37:51.650Z,37.90
2018-03-23T10:40:20.283Z,36.80
2018-03-23T10:42:48.586Z,36.70
2018-03-23T10:45:16.605Z,36.00
2018-03-23T10:47:44.567Z,35.30
2018-03-23T10:50:13.348Z,35.10
2018-03-23T10:52:42.062Z,34.20
2018-03-23T10:55:10.108Z,34.20
2018-03-23T10:57:38.868Z,33.90
2018-03-23T11:00:06.925Z,33.90
2018-03-23T11:02:44.973Z,32.80
2018-03-23T11:05:13.638Z,31.50
2018-03-23T11:07:41.564Z,31.40
2018-03-23T11:10:09.627Z,31.10
2018-03-23T11:12:37.553Z,31.70
2018-03-23T11:15:05.560Z,30.40
2018-03-23T11:17:33.595Z,30.50
2018-03-23T11:20:02.312Z,32.00
2018-03-23T11:22:30.972Z,31.90
2018-03-23T11:24:59.913Z,30.60
2018-03-23T11:27:27.996Z,30.60
2018-03-23T11:29:55.960Z,30.10
2018-03-23T11:32:24.065Z,29.40
2018-03-23T11:34:52.810Z,28.40
2018-03-23T11:37:20.892Z,28.50
2018-03-23T11:39:48.867Z,28.10
2018-03-23T11:42:16.830Z,29.00
2018-03-23T11:44:44.816Z,28.30
2018-03-23T11:47:12.784Z,28.30
2018-03-23T11:49:40.867Z,28.40
2018-03-23T11:52:09.642Z,28.70
2018-03-23T11:54:38.262Z,28.70
2018-03-23T11:57:06.119Z,28.30
2018-03-23T11:59:36.032Z,28.70
2018-03-23T12:02:04.892Z,29.00
2018-03-23T12:04:33.735Z,29.60
2018-03-23T12:07:02.574Z,29.60
2018-03-23T12:09:30.649Z,29.60
2018-03-23T12:11:58.524Z,29.70
2018-03-23T12:14:27.553Z,30.00
2018-03-23T12:16:55.606Z,30.80
2018-03-23T12:19:24.324Z,31.80
2018-03-23T12:21:52.258Z,31.70
2018-03-23T12:24:21.000Z,30.40
2018-03-23T12:26:49.086Z,30.40
2018-03-23T12:29:17.223Z,31.40
2018-03-23T12:31:46.534Z,29.90
2018-03-23T12:34:15.022Z,29.70
2018-03-23T12:36:43.002Z,29.60
2018-03-23T12:39:10.958Z,29.40
2018-03-23T12:41:39.095Z,28.30
2018-03-23T12:46:43.008Z,26.40
2018-03-23T12:49:11.093Z,26.40
2018-03-23T12:51:39.087Z,25.40
2018-03-23T12:54:07.315Z,24.70
2018-03-23T12:56:35.472Z,25.10
2018-03-23T12:59:03.603Z,24.00
2018-03-23T13:01:32.576Z,23.30
2018-03-23T13:04:01.607Z,24.10
2018-03-23T13:06:29.707Z,24.10
2018-03-23T13:08:57.841Z,23.30
2018-03-23T13:11:26.984Z,23.00
2018-03-23T13:13:55.003Z,22.70
2018-03-23T13:33:48.365Z,22.00
2018-03-23T13:36:16.222Z,22.40
2018-03-23T13:38:44.179Z,21.70
2018-03-23T13:41:12.981Z,21.70
2018-03-23T13:43:40.876Z,21.70
2018-03-23T13:46:08.742Z,21.00
2018-03-23T13:48:36.784Z,21.00
2018-03-23T13:51:04.725Z,20.20
2018-03-23T13:53:32.569Z,20.40
2018-03-23T13:56:00.494Z,19.20
2018-03-23T13:58:33.972Z,18.80
2018-03-23T14:01:02.703Z,19.00
2018-03-23T14:03:30.615Z,18.90
2018-03-23T14:05:58.549Z,19.60
2018-03-23T14:08:26.467Z,21.20
2018-03-23T14:10:55.132Z,22.40
2018-03-23T14:13:23.813Z,21.50
2018-03-23T14:15:51.786Z,21.50
2018-03-23T14:18:19.710Z,21.70
2018-03-23T14:20:47.681Z,22.40
2018-03-23T14:23:15.638Z,22.20
2018-03-23T14:25:43.538Z,20.50
2018-03-23T14:28:11.442Z,19.50
2018-03-23T14:30:40.196Z,18.80
2018-03-23T14:33:08.054Z,18.70
2018-03-23T14:35:35.949Z,17.60
2018-03-23T14:38:03.923Z,17.00
2018-03-23T14:40:31.849Z,17.40
2018-03-23T14:42:59.728Z,16.10
2018-03-23T14:45:27.708Z,16.20
2018-03-23T14:47:55.589Z,16.30
2018-03-23T14:50:23.492Z,15.40
2018-03-23T14:52:51.560Z,15.10
2018-03-23T14:55:19.529Z,14.10
2018-03-23T14:57:47.560Z,13.30
2018-03-23T15:00:15.554Z,13.00
2018-03-23T15:02:44.302Z,12.90
2018-03-23T15:05:12.290Z,12.80
2018-03-23T15:07:40.268Z,12.50
2018-03-23T15:10:08.179Z,12.00
2018-03-23T15:12:35.999Z,13.50
2018-03-23T15:15:04.066Z,14.00
2018-03-23T15:17:31.866Z,15.10
2018-03-23T15:19:59.749Z,15.90
2018-03-23T15:22:27.738Z,17.10
2018-03-23T15:24:55.555Z,18.20
2018-03-23T15:27:23.481Z,18.10
2018-03-23T15:29:52.161Z,17.90
2018-03-23T15:32:20.023Z,18.90
2018-03-23T15:34:48.001Z,19.70
2018-03-23T15:37:16.939Z,20.40
2018-03-23T15:39:45.615Z,21.80
2018-03-23T15:42:13.550Z,21.70
2018-03-23T15:44:41.462Z,22.60
2018-03-23T15:47:10.198Z,21.40
2018-03-23T15:49:38.127Z,21.30
2018-03-23T15:52:06.261Z,19.40
2018-03-23T15:54:34.151Z,17.30
2018-03-23T15:57:02.025Z,16.80
2018-03-23T16:02:04.792Z,15.80
2018-03-23T16:04:33.608Z,17.50
2018-03-23T16:07:02.336Z,16.80
2018-03-23T16:09:30.174Z,16.70
2018-03-23T16:11:58.932Z,16.10
2018-03-23T16:14:26.870Z,16.00
2018-03-23T16:16:54.790Z,15.80
2018-03-23T16:19:23.539Z,17.60
2018-03-23T16:21:51.549Z,17.60
2018-03-23T16:24:20.302Z,20.50
2018-03-23T16:26:48.357Z,20.80
2018-03-23T16:29:16.336Z,21.20
2018-03-23T16:31:44.281Z,21.80
2018-03-23T16:34:12.213Z,22.40
2018-03-23T16:36:40.817Z,23.20
2018-03-23T16:39:08.819Z,23.20
2018-03-23T16:41:36.945Z,23.50
2018-03-23T16:44:04.894Z,24.10
2018-03-23T16:46:33.622Z,25.10
2018-03-23T16:49:01.561Z,25.00
2018-03-23T16:51:30.366Z,26.10
2018-03-23T16:53:58.307Z,26.10
2018-03-23T16:56:26.226Z,26.10
2018-03-23T16:58:54.117Z,26.00
2018-03-23T17:01:22.011Z,26.50
2018-03-23T17:03:50.069Z,26.80
2018-03-23T17:06:17.945Z,26.60
2018-03-23T17:08:45.836Z,26.80
2018-03-23T17:11:13.887Z,27.10
2018-03-23T17:13:41.761Z,27.20
2018-03-23T17:16:09.754Z,27.30
2018-03-23T17:18:37.722Z,27.70
2018-03-23T17:21:05.579Z,27.80
2018-03-23T17:23:34.242Z,28.50
2018-03-23T17:26:02.164Z,28.50
2018-03-23T17:28:29.989Z,28.80
2018-03-23T17:30:58.671Z,28.90
2018-03-23T17:33:27.426Z,29.40
2018-03-23T17:35:55.279Z,29.40
2018-03-23T17:38:23.105Z,32.50
2018-03-23T17:40:51.897Z,31.90
2018-03-23T17:43:19.896Z,31.90
2018-03-23T17:45:48.398Z,31.70
2018-03-23T17:48:16.314Z,32.60
2018-03-23T17:50:44.225Z,32.40
2018-03-23T17:53:12.219Z,32.40
2018-03-23T17:55:41.039Z,32.90
2018-03-23T17:58:09.794Z,33.40
2018-03-23T18:00:38.684Z,33.40
2018-03-23T18:03:06.579Z,33.90
2018-03-23T18:05:35.092Z,34.60
2018-03-23T18:08:03.423Z,35.20
2018-03-23T18:10:32.122Z,35.90
2018-03-23T18:13:00.834Z,35.90
2018-03-23T18:15:28.673Z,35.80
2018-03-23T18:17:57.357Z,36.30
2018-03-23T18:20:26.009Z,36.30
2018-03-23T18:22:53.894Z,36.30
2018-03-23T18:25:21.749Z,36.40
2018-03-23T18:27:49.598Z,36.30
2018-03-23T18:30:17.602Z,36.40
2018-03-23T18:32:46.271Z,37.20
2018-03-23T18:35:14.164Z,37.20
2018-03-23T18:37:42.779Z,37.40
2018-03-23T18:40:11.545Z,37.60
2018-03-23T18:42:40.233Z,37.80
2018-03-23T18:45:08.788Z,37.90
2018-03-23T18:47:37.017Z,37.80
2018-03-23T18:50:05.015Z,37.80
2018-03-23T18:52:33.002Z,37.60
2018-03-23T18:55:00.853Z,38.70
2018-03-23T18:57:28.888Z,39.60
2018-03-23T18:59:56.822Z,40.00
2018-03-23T19:02:26.371Z,40.70
2018-03-23T19:04:55.215Z,40.00
2018-03-23T19:07:23.902Z,40.30
2018-03-23T19:09:51.984Z,40.30
2018-03-23T19:12:24.383Z,41.00
2018-03-23T19:14:53.760Z,41.00
2018-03-23T19:17:22.622Z,40.70
2018-03-23T19:19:50.887Z,40.80
2018-03-23T19:22:19.039Z,40.80
2018-03-23T19:24:46.882Z,40.90
2018-03-23T19:27:15.652Z,41.50
2018-03-23T19:29:44.411Z,41.80
2018-03-23T19:32:12.286Z,41.70
2018-03-23T19:34:40.353Z,42.00
2018-03-23T19:37:09.034Z,42.40
2018-03-23T19:39:37.132Z,42.40
2018-03-23T19:49:17.572Z,43.30
2018-03-23T19:51:45.518Z,43.50
2018-03-23T19:54:13.432Z,43.70
2018-03-23T19:56:41.511Z,43.80
2018-03-23T19:59:09.580Z,44.20
2018-03-23T20:01:37.557Z,44.40
2018-03-23T20:04:05.624Z,44.50
2018-03-23T20:06:33.534Z,44.60
2018-03-23T20:09:01.970Z,44.50
2018-03-23T20:11:30.033Z,44.70
2018-03-23T20:14:03.848Z,44.90
2018-03-23T20:16:31.858Z,44.90
2018-03-23T20:19:00.493Z,45.40
2018-03-23T20:21:29.289Z,45.30
2018-03-23T20:24:02.820Z,45.50
2018-03-23T20:26:31.480Z,45.70
2018-03-23T20:28:59.332Z,45.70
2018-03-23T20:31:32.801Z,45.90
2018-03-23T20:34:00.611Z,45.90
2018-03-23T20:36:28.432Z,46.10
2018-03-23T20:38:56.432Z,46.60
2018-03-23T20:41:24.339Z,46.80
2018-03-23T20:43:52.984Z,47.00
2018-03-23T20:46:20.965Z,46.90
2018-03-23T20:48:49.682Z,47.80
2018-03-23T20:51:18.276Z,47.60
2018-03-23T20:53:46.959Z,51.30
2018-03-23T20:56:15.565Z,51.60
2018-03-23T20:58:43.520Z,51.50
2018-03-23T21:01:11.571Z,49.50
2018-03-23T21:03:40.317Z,49.00
2018-03-23T21:06:08.226Z,48.60
2018-03-23T21:08:36.914Z,48.60
2018-03-23T21:11:05.626Z,49.20
2018-03-23T21:13:33.521Z,48.70
2018-03-23T21:16:01.415Z,48.80
2018-03-23T21:18:29.325Z,48.90
2018-03-23T21:20:57.229Z,49.10
2018-03-23T21:23:25.243Z,49.10
2018-03-23T21:25:53.879Z,50.00
2018-03-23T21:28:21.675Z,50.00
2018-03-23T21:30:49.652Z,50.40
2018-03-23T21:33:18.478Z,50.80
2018-03-23T21:35:46.393Z,50.80
2018-03-23T21:38:14.320Z,50.90
2018-03-23T21:40:42.177Z,51.00
2018-03-23T21:43:10.060Z,51.00
2018-03-23T21:45:38.047Z,51.30
2018-03-23T21:48:06.625Z,53.00
2018-03-23T21:50:34.553Z,53.00
2018-03-23T21:53:03.187Z,53.60
2018-03-23T21:55:31.852Z,54.00
2018-03-23T21:57:59.665Z,54.00
2018-03-23T22:00:27.562Z,54.20
2018-03-23T22:02:56.270Z,54.70
2018-03-23T22:05:24.093Z,54.70
2018-03-23T22:07:52.054Z,54.80
2018-03-23T22:10:19.992Z,54.80
2018-03-23T22:12:47.873Z,54.80
2018-03-23T22:15:15.866Z,55.10
2018-03-23T22:17:43.732Z,55.20
2018-03-23T22:20:11.540Z,55.30
2018-03-23T22:22:39.528Z,55.10
2018-03-23T22:25:07.404Z,56.00
2018-03-23T22:27:35.350Z,57.20
2018-03-23T22:30:03.463Z,57.00
2018-03-23T22:32:31.416Z,57.60
2018-03-23T22:34:59.472Z,58.20
2018-03-23T22:37:27.388Z,58.00
2018-03-23T22:39:55.363Z,58.00
2018-03-23T22:42:23.921Z,58.00
2018-03-23T22:44:51.887Z,57.90
2018-03-23T22:47:19.694Z,58.00
2018-03-23T22:49:48.360Z,58.30
2018-03-23T22:52:16.977Z,59.10
2018-03-23T22:54:44.840Z,59.00
2018-03-23T22:57:12.758Z,59.20
2018-03-23T22:59:40.746Z,59.70
2018-03-23T23:02:09.496Z,60.60
2018-03-23T23:04:37.337Z,60.00
2018-03-23T23:07:05.277Z,59.80
2018-03-23T23:09:34.015Z,60.10
2018-03-23T23:12:01.856Z,60.00
2018-03-23T23:14:29.760Z,61.10
2018-03-23T23:16:57.589Z,61.10
2018-03-23T23:19:25.512Z,61.20
2018-03-23T23:21:53.844Z,61.80
2018-03-23T23:24:22.352Z,61.40
2018-03-23T23:26:50.264Z,61.50
2018-03-23T23:29:18.261Z,62.90
2018-03-23T23:31:46.153Z,62.60
2018-03-23T23:34:14.061Z,62.90
2018-03-23T23:36:41.988Z,62.60
2018-03-23T23:39:09.875Z,63.20
2018-03-23T23:41:37.799Z,63.60
2018-03-23T23:44:05.683Z,64.20
2018-03-23T23:46:33.562Z,65.20
2018-03-23T23:49:01.410Z,65.50
2018-03-23T23:51:29.323Z,65.70
2018-03-23T23:53:57.225Z,67.40
2018-03-23T23:56:25.846Z,68.40
2018-03-23T23:58:53.746Z,68.30
